Aviation Digital Data Service (ADDS)

Output produced by METARs form (1721 UTC 16 June 2019)
found at http://www.aviationweather.gov/metar/data/
 
FIMR 161500Z 13017KT 9999 SCT018 23/19 Q1020
TAF FIMR 161135Z 1612/1706 13017G28KT 9999 SCT019
       
FIMP 161700Z 13009KT 9999 SCT018 23/15 Q1023
TAF FIMP 161130Z 1612/1718 14010G20KT 9999 SCT019 
     PROB30 
     TEMPO 1702/1708 7000 -SHRA SCT016 BKN050 
     BECMG 1710/1712 12013G25KT